sensor_id;sensor_type;location;lat;lon;timestamp;temperature;humidity
37806;DHT22;25082;50.870;0.022;2023-06-22T00:01:49;21.80;71.90
37806;DHT22;25082;50.870;0.022;2023-06-22T00:04:15;21.80;71.90
37806;DHT22;25082;50.870;0.022;2023-06-22T00:06:41;21.80;71.90
37806;DHT22;25082;50.870;0.022;2023-06-22T00:09:06;21.80;71.90
37806;DHT22;25082;50.870;0.022;2023-06-22T00:11:33;21.70;71.80
37806;DHT22;25082;50.870;0.022;2023-06-22T00:13:59;21.70;71.70
37806;DHT22;25082;50.870;0.022;2023-06-22T00:16:25;21.70;71.80
37806;DHT22;25082;50.870;0.022;2023-06-22T00:18:51;21.70;71.80
37806;DHT22;25082;50.870;0.022;2023-06-22T00:21:17;21.70;71.70
37806;DHT22;25082;50.870;0.022;2023-06-22T00:23:42;21.70;71.70
37806;DHT22;25082;50.870;0.022;2023-06-22T00:26:09;21.70;71.70
37806;DHT22;25082;50.870;0.022;2023-06-22T00:28:34;21.70;71.60
37806;DHT22;25082;50.870;0.022;2023-06-22T00:31:00;21.70;71.60
37806;DHT22;25082;50.870;0.022;2023-06-22T00:33:26;21.70;71.60
37806;DHT22;25082;50.870;0.022;2023-06-22T00:35:53;21.70;71.60
37806;DHT22;25082;50.870;0.022;2023-06-22T00:38:19;21.70;71.60
37806;DHT22;25082;50.870;0.022;2023-06-22T00:40:46;21.70;71.50
37806;DHT22;25082;50.870;0.022;2023-06-22T00:43:12;21.70;71.50
37806;DHT22;25082;50.870;0.022;2023-06-22T00:45:38;21.70;71.40
37806;DHT22;25082;50.870;0.022;2023-06-22T00:48:05;21.70;71.40
37806;DHT22;25082;50.870;0.022;2023-06-22T00:50:33;21.70;71.40
37806;DHT22;25082;50.870;0.022;2023-06-22T00:53:07;21.60;71.40
37806;DHT22;25082;50.870;0.022;2023-06-22T00:55:44;21.60;71.30
37806;DHT22;25082;50.870;0.022;2023-06-22T00:58:16;21.60;71.30
37806;DHT22;25082;50.870;0.022;2023-06-22T01:00:42;21.70;71.30
37806;DHT22;25082;50.870;0.022;2023-06-22T01:03:08;21.70;71.30
37806;DHT22;25082;50.870;0.022;2023-06-22T01:05:36;21.60;71.30
37806;DHT22;25082;50.870;0.022;2023-06-22T01:08:23;21.60;71.30
37806;DHT22;25082;50.870;0.022;2023-06-22T01:16:33;21.60;71.30
37806;DHT22;25082;50.870;0.022;2023-06-22T01:19:20;21.60;71.30
37806;DHT22;25082;50.870;0.022;2023-06-22T01:21:49;21.70;71.40
37806;DHT22;25082;50.870;0.022;2023-06-22T01:27:32;21.60;71.30
37806;DHT22;25082;50.870;0.022;2023-06-22T01:30:03;21.60;71.30
37806;DHT22;25082;50.870;0.022;2023-06-22T01:32:33;21.60;71.80
37806;DHT22;25082;50.870;0.022;2023-06-22T01:35:01;21.60;71.20
37806;DHT22;25082;50.870;0.022;2023-06-22T01:37:29;21.60;71.20
37806;DHT22;25082;50.870;0.022;2023-06-22T01:39:58;21.60;71.20
37806;DHT22;25082;50.870;0.022;2023-06-22T01:42:25;21.60;71.30
37806;DHT22;25082;50.870;0.022;2023-06-22T01:44:53;21.60;71.20
37806;DHT22;25082;50.870;0.022;2023-06-22T01:47:20;21.60;71.20
37806;DHT22;25082;50.870;0.022;2023-06-22T01:49:46;21.60;71.20
37806;DHT22;25082;50.870;0.022;2023-06-22T01:52:12;21.60;71.20
37806;DHT22;25082;50.870;0.022;2023-06-22T01:54:39;21.60;71.10
37806;DHT22;25082;50.870;0.022;2023-06-22T01:57:05;21.60;71.10
37806;DHT22;25082;50.870;0.022;2023-06-22T01:59:36;21.50;71.10
37806;DHT22;25082;50.870;0.022;2023-06-22T02:02:07;21.50;71.60
37806;DHT22;25082;50.870;0.022;2023-06-22T02:04:47;21.50;71.10
37806;DHT22;25082;50.870;0.022;2023-06-22T02:07:15;21.60;71.10
37806;DHT22;25082;50.870;0.022;2023-06-22T02:09:46;21.50;71.10
37806;DHT22;25082;50.870;0.022;2023-06-22T02:12:17;21.50;71.10
37806;DHT22;25082;50.870;0.022;2023-06-22T02:14:45;21.60;71.10
37806;DHT22;25082;50.870;0.022;2023-06-22T02:17:12;21.60;71.10
37806;DHT22;25082;50.870;0.022;2023-06-22T02:19:38;21.60;71.10
37806;DHT22;25082;50.870;0.022;2023-06-22T02:22:06;21.50;71.10
37806;DHT22;25082;50.870;0.022;2023-06-22T02:24:32;21.50;71.10
37806;DHT22;25082;50.870;0.022;2023-06-22T02:27:01;21.60;71.10
37806;DHT22;25082;50.870;0.022;2023-06-22T02:29:28;21.50;71.10
37806;DHT22;25082;50.870;0.022;2023-06-22T02:31:57;21.50;71.10
37806;DHT22;25082;50.870;0.022;2023-06-22T02:34:22;21.50;71.10
37806;DHT22;25082;50.870;0.022;2023-06-22T02:36:49;21.50;71.10
37806;DHT22;25082;50.870;0.022;2023-06-22T02:39:22;21.50;71.10
37806;DHT22;25082;50.870;0.022;2023-06-22T02:41:52;21.50;71.10
37806;DHT22;25082;50.870;0.022;2023-06-22T02:44:19;21.50;71.10
37806;DHT22;25082;50.870;0.022;2023-06-22T02:46:45;21.50;71.10
37806;DHT22;25082;50.870;0.022;2023-06-22T02:49:11;21.60;71.20
37806;DHT22;25082;50.870;0.022;2023-06-22T02:51:41;21.50;71.10
37806;DHT22;25082;50.870;0.022;2023-06-22T02:54:07;21.50;71.10
37806;DHT22;25082;50.870;0.022;2023-06-22T02:56:32;21.50;71.10
37806;DHT22;25082;50.870;0.022;2023-06-22T02:58:58;21.50;71.10
37806;DHT22;25082;50.870;0.022;2023-06-22T03:01:29;21.50;71.10
37806;DHT22;25082;50.870;0.022;2023-06-22T03:03:58;21.50;71.70
37806;DHT22;25082;50.870;0.022;2023-06-22T03:06:24;21.50;71.10
37806;DHT22;25082;50.870;0.022;2023-06-22T03:09:04;21.50;71.20
37806;DHT22;25082;50.870;0.022;2023-06-22T03:11:34;21.50;71.20
37806;DHT22;25082;50.870;0.022;2023-06-22T03:14:01;21.50;71.20
37806;DHT22;25082;50.870;0.022;2023-06-22T03:16:27;21.50;71.20
37806;DHT22;25082;50.870;0.022;2023-06-22T03:18:53;21.50;71.20
37806;DHT22;25082;50.870;0.022;2023-06-22T03:21:22;21.50;71.20
37806;DHT22;25082;50.870;0.022;2023-06-22T03:23:48;21.40;71.10
37806;DHT22;25082;50.870;0.022;2023-06-22T03:26:17;21.40;71.10
37806;DHT22;25082;50.870;0.022;2023-06-22T03:28:43;21.40;71.10
37806;DHT22;25082;50.870;0.022;2023-06-22T03:31:09;21.50;71.20
37806;DHT22;25082;50.870;0.022;2023-06-22T03:33:35;21.50;71.20
37806;DHT22;25082;50.870;0.022;2023-06-22T03:36:01;21.40;71.10
37806;DHT22;25082;50.870;0.022;2023-06-22T03:38:26;21.50;71.20
37806;DHT22;25082;50.870;0.022;2023-06-22T03:40:52;21.50;71.20
37806;DHT22;25082;50.870;0.022;2023-06-22T03:43:18;21.50;71.20
37806;DHT22;25082;50.870;0.022;2023-06-22T03:45:44;21.40;71.20
37806;DHT22;25082;50.870;0.022;2023-06-22T03:48:12;21.40;71.20
37806;DHT22;25082;50.870;0.022;2023-06-22T03:50:38;21.40;71.20
37806;DHT22;25082;50.870;0.022;2023-06-22T03:53:04;21.40;71.20
37806;DHT22;25082;50.870;0.022;2023-06-22T03:55:29;21.40;71.20
37806;DHT22;25082;50.870;0.022;2023-06-22T03:57:55;21.50;71.30
37806;DHT22;25082;50.870;0.022;2023-06-22T04:00:23;21.50;71.30
37806;DHT22;25082;50.870;0.022;2023-06-22T04:02:49;21.50;71.30
37806;DHT22;25082;50.870;0.022;2023-06-22T04:05:15;21.40;71.20
37806;DHT22;25082;50.870;0.022;2023-06-22T04:07:43;21.40;71.30
37806;DHT22;25082;50.870;0.022;2023-06-22T04:10:08;21.50;71.30
37806;DHT22;25082;50.870;0.022;2023-06-22T04:12:34;21.40;71.30
37806;DHT22;25082;50.870;0.022;2023-06-22T04:15:00;21.40;71.30
37806;DHT22;25082;50.870;0.022;2023-06-22T04:17:26;21.40;71.30
37806;DHT22;25082;50.870;0.022;2023-06-22T04:19:52;21.40;71.30
37806;DHT22;25082;50.870;0.022;2023-06-22T04:22:17;21.40;71.30
37806;DHT22;25082;50.870;0.022;2023-06-22T04:24:44;21.40;71.30
37806;DHT22;25082;50.870;0.022;2023-06-22T04:27:10;21.40;71.30
37806;DHT22;25082;50.870;0.022;2023-06-22T04:29:36;21.40;71.30
37806;DHT22;25082;50.870;0.022;2023-06-22T04:32:02;21.40;71.30
37806;DHT22;25082;50.870;0.022;2023-06-22T04:34:31;21.40;71.30
37806;DHT22;25082;50.870;0.022;2023-06-22T04:36:57;21.40;71.20
37806;DHT22;25082;50.870;0.022;2023-06-22T04:39:23;21.40;71.30
37806;DHT22;25082;50.870;0.022;2023-06-22T04:41:49;21.40;71.30
37806;DHT22;25082;50.870;0.022;2023-06-22T04:44:19;21.40;71.20
37806;DHT22;25082;50.870;0.022;2023-06-22T04:46:52;21.40;71.30
37806;DHT22;25082;50.870;0.022;2023-06-22T04:49:20;21.40;71.30
37806;DHT22;25082;50.870;0.022;2023-06-22T04:51:46;21.40;71.20
37806;DHT22;25082;50.870;0.022;2023-06-22T04:54:12;21.40;71.30
37806;DHT22;25082;50.870;0.022;2023-06-22T04:56:38;21.40;71.20
37806;DHT22;25082;50.870;0.022;2023-06-22T04:59:06;21.40;71.20
37806;DHT22;25082;50.870;0.022;2023-06-22T05:01:32;21.40;71.30
37806;DHT22;25082;50.870;0.022;2023-06-22T05:03:58;21.40;71.30
37806;DHT22;25082;50.870;0.022;2023-06-22T05:06:26;21.40;71.30
37806;DHT22;25082;50.870;0.022;2023-06-22T05:08:56;21.40;71.30
37806;DHT22;25082;50.870;0.022;2023-06-22T05:11:27;21.40;71.40
37806;DHT22;25082;50.870;0.022;2023-06-22T05:13:54;21.40;71.30
37806;DHT22;25082;50.870;0.022;2023-06-22T05:16:20;21.40;71.30
37806;DHT22;25082;50.870;0.022;2023-06-22T05:18:55;21.40;71.30
37806;DHT22;25082;50.870;0.022;2023-06-22T05:21:26;21.40;71.40
37806;DHT22;25082;50.870;0.022;2023-06-22T05:23:52;21.40;71.40
37806;DHT22;25082;50.870;0.022;2023-06-22T05:26:19;21.40;71.60
37806;DHT22;25082;50.870;0.022;2023-06-22T05:28:46;21.40;71.40
37806;DHT22;25082;50.870;0.022;2023-06-22T05:31:14;21.40;71.30
37806;DHT22;25082;50.870;0.022;2023-06-22T05:33:41;21.40;71.40
37806;DHT22;25082;50.870;0.022;2023-06-22T05:36:07;21.40;71.40
37806;DHT22;25082;50.870;0.022;2023-06-22T05:38:33;21.40;71.40
37806;DHT22;25082;50.870;0.022;2023-06-22T05:40:58;21.40;71.40
37806;DHT22;25082;50.870;0.022;2023-06-22T05:43:24;21.40;71.40
37806;DHT22;25082;50.870;0.022;2023-06-22T05:45:50;21.40;71.40
37806;DHT22;25082;50.870;0.022;2023-06-22T05:48:16;21.40;71.40
37806;DHT22;25082;50.870;0.022;2023-06-22T05:50:44;21.40;71.40
37806;DHT22;25082;50.870;0.022;2023-06-22T05:53:10;21.40;71.40
37806;DHT22;25082;50.870;0.022;2023-06-22T05:55:36;21.40;71.40
37806;DHT22;25082;50.870;0.022;2023-06-22T05:58:02;21.40;71.40
37806;DHT22;25082;50.870;0.022;2023-06-22T06:00:29;21.40;71.40
37806;DHT22;25082;50.870;0.022;2023-06-22T06:02:55;21.40;71.40
37806;DHT22;25082;50.870;0.022;2023-06-22T06:05:20;21.40;71.40
37806;DHT22;25082;50.870;0.022;2023-06-22T06:07:46;21.40;71.40
37806;DHT22;25082;50.870;0.022;2023-06-22T06:10:12;21.40;71.40
37806;DHT22;25082;50.870;0.022;2023-06-22T06:12:38;21.40;71.40
37806;DHT22;25082;50.870;0.022;2023-06-22T06:15:04;21.40;71.40
37806;DHT22;25082;50.870;0.022;2023-06-22T06:17:30;21.40;71.40
37806;DHT22;25082;50.870;0.022;2023-06-22T06:19:56;21.40;71.40
37806;DHT22;25082;50.870;0.022;2023-06-22T06:22:22;21.40;71.50
37806;DHT22;25082;50.870;0.022;2023-06-22T06:24:49;21.40;71.50
37806;DHT22;25082;50.870;0.022;2023-06-22T06:27:15;21.40;71.50
37806;DHT22;25082;50.870;0.022;2023-06-22T06:29:43;21.40;71.50
37806;DHT22;25082;50.870;0.022;2023-06-22T06:32:11;21.40;71.50
37806;DHT22;25082;50.870;0.022;2023-06-22T06:34:37;21.40;71.50
37806;DHT22;25082;50.870;0.022;2023-06-22T06:37:03;21.40;71.60
37806;DHT22;25082;50.870;0.022;2023-06-22T06:39:29;21.40;71.60
37806;DHT22;25082;50.870;0.022;2023-06-22T06:41:54;21.40;71.60
37806;DHT22;25082;50.870;0.022;2023-06-22T06:44:20;21.40;71.70
37806;DHT22;25082;50.870;0.022;2023-06-22T06:46:46;21.40;71.60
37806;DHT22;25082;50.870;0.022;2023-06-22T06:49:12;21.40;71.70
37806;DHT22;25082;50.870;0.022;2023-06-22T06:51:38;21.40;71.70
37806;DHT22;25082;50.870;0.022;2023-06-22T06:54:04;21.40;71.70
37806;DHT22;25082;50.870;0.022;2023-06-22T06:56:30;21.40;71.70
37806;DHT22;25082;50.870;0.022;2023-06-22T06:58:59;21.40;71.70
37806;DHT22;25082;50.870;0.022;2023-06-22T07:01:25;21.40;71.60
37806;DHT22;25082;50.870;0.022;2023-06-22T07:03:50;21.40;71.70
37806;DHT22;25082;50.870;0.022;2023-06-22T07:06:16;21.40;71.70
37806;DHT22;25082;50.870;0.022;2023-06-22T07:08:42;21.40;71.60
37806;DHT22;25082;50.870;0.022;2023-06-22T07:11:08;21.40;71.60
37806;DHT22;25082;50.870;0.022;2023-06-22T07:13:34;21.40;71.70
37806;DHT22;25082;50.870;0.022;2023-06-22T07:16:00;21.40;71.60
37806;DHT22;25082;50.870;0.022;2023-06-22T07:18:25;21.40;71.70
37806;DHT22;25082;50.870;0.022;2023-06-22T07:20:55;21.40;71.70
37806;DHT22;25082;50.870;0.022;2023-06-22T07:23:20;21.40;71.70
37806;DHT22;25082;50.870;0.022;2023-06-22T07:25:46;21.40;71.60
37806;DHT22;25082;50.870;0.022;2023-06-22T07:28:12;21.40;71.70
37806;DHT22;25082;50.870;0.022;2023-06-22T07:30:37;21.40;71.60
37806;DHT22;25082;50.870;0.022;2023-06-22T07:33:03;21.40;71.60
37806;DHT22;25082;50.870;0.022;2023-06-22T07:35:32;21.40;71.60
37806;DHT22;25082;50.870;0.022;2023-06-22T07:37:58;21.40;71.60
37806;DHT22;25082;50.870;0.022;2023-06-22T07:40:23;21.40;71.60
37806;DHT22;25082;50.870;0.022;2023-06-22T07:42:49;21.40;71.60
37806;DHT22;25082;50.870;0.022;2023-06-22T07:45:17;21.40;71.60
37806;DHT22;25082;50.870;0.022;2023-06-22T07:47:43;21.40;71.60
37806;DHT22;25082;50.870;0.022;2023-06-22T07:50:09;21.40;71.60
37806;DHT22;25082;50.870;0.022;2023-06-22T07:52:35;21.40;71.60
37806;DHT22;25082;50.870;0.022;2023-06-22T07:55:01;21.40;71.70
37806;DHT22;25082;50.870;0.022;2023-06-22T07:57:28;21.40;71.60
37806;DHT22;25082;50.870;0.022;2023-06-22T08:00:03;21.50;71.60
37806;DHT22;25082;50.870;0.022;2023-06-22T08:02:32;21.40;71.50
37806;DHT22;25082;50.870;0.022;2023-06-22T08:04:57;21.50;71.60
37806;DHT22;25082;50.870;0.022;2023-06-22T08:07:23;21.40;71.60
37806;DHT22;25082;50.870;0.022;2023-06-22T08:09:49;21.40;71.50
37806;DHT22;25082;50.870;0.022;2023-06-22T08:12:15;21.50;71.60
37806;DHT22;25082;50.870;0.022;2023-06-22T08:14:42;21.50;71.50
37806;DHT22;25082;50.870;0.022;2023-06-22T08:17:09;21.50;71.60
37806;DHT22;25082;50.870;0.022;2023-06-22T08:19:37;21.50;71.50
37806;DHT22;25082;50.870;0.022;2023-06-22T08:22:02;21.50;71.50
37806;DHT22;25082;50.870;0.022;2023-06-22T08:24:28;21.50;71.50
37806;DHT22;25082;50.870;0.022;2023-06-22T08:26:56;21.50;71.50
37806;DHT22;25082;50.870;0.022;2023-06-22T08:29:21;21.50;71.70
37806;DHT22;25082;50.870;0.022;2023-06-22T08:31:47;21.50;71.70
37806;DHT22;25082;50.870;0.022;2023-06-22T08:34:13;21.50;71.90
37806;DHT22;25082;50.870;0.022;2023-06-22T08:36:39;21.50;71.80
37806;DHT22;25082;50.870;0.022;2023-06-22T08:39:10;21.50;71.70
37806;DHT22;25082;50.870;0.022;2023-06-22T08:41:36;21.50;72.50
37806;DHT22;25082;50.870;0.022;2023-06-22T08:44:01;21.50;72.20
37806;DHT22;25082;50.870;0.022;2023-06-22T08:46:28;21.50;72.10
37806;DHT22;25082;50.870;0.022;2023-06-22T08:48:59;21.50;72.00
37806;DHT22;25082;50.870;0.022;2023-06-22T08:51:25;21.50;72.10
37806;DHT22;25082;50.870;0.022;2023-06-22T08:53:51;21.50;72.10
37806;DHT22;25082;50.870;0.022;2023-06-22T08:56:17;21.50;72.00
37806;DHT22;25082;50.870;0.022;2023-06-22T08:58:43;21.50;72.00
37806;DHT22;25082;50.870;0.022;2023-06-22T09:01:09;21.60;72.10
37806;DHT22;25082;50.870;0.022;2023-06-22T09:03:35;21.50;72.10
37806;DHT22;25082;50.870;0.022;2023-06-22T09:06:02;21.60;72.10
37806;DHT22;25082;50.870;0.022;2023-06-22T09:08:28;21.50;72.00
37806;DHT22;25082;50.870;0.022;2023-06-22T09:10:53;21.50;72.00
37806;DHT22;25082;50.870;0.022;2023-06-22T09:13:19;21.50;72.00
37806;DHT22;25082;50.870;0.022;2023-06-22T09:15:45;21.60;72.00
37806;DHT22;25082;50.870;0.022;2023-06-22T09:18:11;21.60;72.00
37806;DHT22;25082;50.870;0.022;2023-06-22T09:20:37;21.60;72.00
37806;DHT22;25082;50.870;0.022;2023-06-22T09:23:03;21.60;72.10
37806;DHT22;25082;50.870;0.022;2023-06-22T09:25:28;21.60;72.00
37806;DHT22;25082;50.870;0.022;2023-06-22T09:27:54;21.60;72.10
37806;DHT22;25082;50.870;0.022;2023-06-22T09:30:20;21.60;72.10
37806;DHT22;25082;50.870;0.022;2023-06-22T09:32:45;21.60;72.20
37806;DHT22;25082;50.870;0.022;2023-06-22T09:35:11;21.60;72.00
37806;DHT22;25082;50.870;0.022;2023-06-22T09:37:39;21.60;72.00
37806;DHT22;25082;50.870;0.022;2023-06-22T09:40:06;21.60;72.00
37806;DHT22;25082;50.870;0.022;2023-06-22T09:42:38;21.60;72.00
37806;DHT22;25082;50.870;0.022;2023-06-22T09:45:04;21.60;72.00
37806;DHT22;25082;50.870;0.022;2023-06-22T09:47:30;21.60;71.90
37806;DHT22;25082;50.870;0.022;2023-06-22T09:49:56;21.60;71.90
37806;DHT22;25082;50.870;0.022;2023-06-22T09:52:24;21.60;71.90
37806;DHT22;25082;50.870;0.022;2023-06-22T09:54:50;21.60;71.80
37806;DHT22;25082;50.870;0.022;2023-06-22T09:57:15;21.60;71.80
37806;DHT22;25082;50.870;0.022;2023-06-22T09:59:41;21.60;71.80
37806;DHT22;25082;50.870;0.022;2023-06-22T10:02:07;21.60;71.80
37806;DHT22;25082;50.870;0.022;2023-06-22T10:04:36;21.60;71.80
37806;DHT22;25082;50.870;0.022;2023-06-22T10:07:02;21.60;71.70
37806;DHT22;25082;50.870;0.022;2023-06-22T10:09:28;21.60;71.70
37806;DHT22;25082;50.870;0.022;2023-06-22T10:11:54;21.60;71.70
37806;DHT22;25082;50.870;0.022;2023-06-22T10:14:20;21.60;71.70
37806;DHT22;25082;50.870;0.022;2023-06-22T10:16:46;21.60;71.60
37806;DHT22;25082;50.870;0.022;2023-06-22T10:19:11;21.60;71.60
37806;DHT22;25082;50.870;0.022;2023-06-22T10:21:37;21.60;71.70
37806;DHT22;25082;50.870;0.022;2023-06-22T10:24:03;21.60;71.60
37806;DHT22;25082;50.870;0.022;2023-06-22T10:26:32;21.60;71.50
37806;DHT22;25082;50.870;0.022;2023-06-22T10:28:58;21.60;71.30
37806;DHT22;25082;50.870;0.022;2023-06-22T10:31:24;21.60;71.30
37806;DHT22;25082;50.870;0.022;2023-06-22T10:33:50;21.60;71.30
37806;DHT22;25082;50.870;0.022;2023-06-22T10:36:16;21.60;71.30
37806;DHT22;25082;50.870;0.022;2023-06-22T10:38:41;21.70;71.30
37806;DHT22;25082;50.870;0.022;2023-06-22T10:41:07;21.60;71.10
37806;DHT22;25082;50.870;0.022;2023-06-22T10:43:33;21.60;71.10
37806;DHT22;25082;50.870;0.022;2023-06-22T10:45:58;21.60;71.00
37806;DHT22;25082;50.870;0.022;2023-06-22T10:48:24;21.60;71.00
37806;DHT22;25082;50.870;0.022;2023-06-22T10:50:50;21.70;71.00
37806;DHT22;25082;50.870;0.022;2023-06-22T10:53:15;21.60;71.00
37806;DHT22;25082;50.870;0.022;2023-06-22T10:55:41;21.60;71.00
37806;DHT22;25082;50.870;0.022;2023-06-22T10:58:07;21.60;71.00
37806;DHT22;25082;50.870;0.022;2023-06-22T11:00:32;21.60;71.00
37806;DHT22;25082;50.870;0.022;2023-06-22T11:02:58;21.60;71.00
37806;DHT22;25082;50.870;0.022;2023-06-22T11:05:24;21.60;71.00
37806;DHT22;25082;50.870;0.022;2023-06-22T11:07:50;21.60;70.90
37806;DHT22;25082;50.870;0.022;2023-06-22T11:10:16;21.60;70.90
37806;DHT22;25082;50.870;0.022;2023-06-22T11:12:41;21.70;71.00
37806;DHT22;25082;50.870;0.022;2023-06-22T11:15:08;21.70;70.90
37806;DHT22;25082;50.870;0.022;2023-06-22T11:17:34;21.60;70.90
37806;DHT22;25082;50.870;0.022;2023-06-22T11:20:00;21.70;70.80
37806;DHT22;25082;50.870;0.022;2023-06-22T11:22:26;21.70;70.70
37806;DHT22;25082;50.870;0.022;2023-06-22T11:24:52;21.70;70.60
37806;DHT22;25082;50.870;0.022;2023-06-22T11:27:18;21.70;70.60
37806;DHT22;25082;50.870;0.022;2023-06-22T11:29:44;21.70;70.50
37806;DHT22;25082;50.870;0.022;2023-06-22T11:32:09;21.70;70.50
37806;DHT22;25082;50.870;0.022;2023-06-22T11:34:35;21.70;70.50
37806;DHT22;25082;50.870;0.022;2023-06-22T11:37:01;21.70;70.50
37806;DHT22;25082;50.870;0.022;2023-06-22T11:39:27;21.70;70.50
37806;DHT22;25082;50.870;0.022;2023-06-22T11:41:52;21.70;70.60
37806;DHT22;25082;50.870;0.022;2023-06-22T11:44:18;21.70;70.50
37806;DHT22;25082;50.870;0.022;2023-06-22T11:46:44;21.80;70.60
37806;DHT22;25082;50.870;0.022;2023-06-22T11:49:09;21.70;70.50
37806;DHT22;25082;50.870;0.022;2023-06-22T11:51:35;21.80;70.60
37806;DHT22;25082;50.870;0.022;2023-06-22T11:54:01;21.80;70.60
37806;DHT22;25082;50.870;0.022;2023-06-22T11:56:28;21.80;70.60
37806;DHT22;25082;50.870;0.022;2023-06-22T11:58:54;21.80;70.50
37806;DHT22;25082;50.870;0.022;2023-06-22T12:01:20;21.80;70.40
37806;DHT22;25082;50.870;0.022;2023-06-22T12:03:46;21.80;70.40
37806;DHT22;25082;50.870;0.022;2023-06-22T12:06:12;21.80;70.40
37806;DHT22;25082;50.870;0.022;2023-06-22T12:08:38;21.80;70.40
37806;DHT22;25082;50.870;0.022;2023-06-22T12:11:03;21.80;70.40
37806;DHT22;25082;50.870;0.022;2023-06-22T12:13:29;21.80;70.40
37806;DHT22;25082;50.870;0.022;2023-06-22T12:15:55;21.80;70.40
37806;DHT22;25082;50.870;0.022;2023-06-22T12:18:20;21.80;70.30
37806;DHT22;25082;50.870;0.022;2023-06-22T12:20:47;21.80;70.30
37806;DHT22;25082;50.870;0.022;2023-06-22T12:23:13;21.80;70.30
37806;DHT22;25082;50.870;0.022;2023-06-22T12:25:39;21.90;70.30
37806;DHT22;25082;50.870;0.022;2023-06-22T12:28:04;21.80;70.20
37806;DHT22;25082;50.870;0.022;2023-06-22T12:30:32;21.90;70.20
37806;DHT22;25082;50.870;0.022;2023-06-22T12:32:58;21.90;70.80
37806;DHT22;25082;50.870;0.022;2023-06-22T12:35:24;21.90;70.20
37806;DHT22;25082;50.870;0.022;2023-06-22T12:37:49;21.90;70.20
37806;DHT22;25082;50.870;0.022;2023-06-22T12:40:15;21.90;70.20
37806;DHT22;25082;50.870;0.022;2023-06-22T12:42:41;21.90;70.20
37806;DHT22;25082;50.870;0.022;2023-06-22T12:45:08;21.90;70.20
37806;DHT22;25082;50.870;0.022;2023-06-22T12:47:34;21.90;70.20
37806;DHT22;25082;50.870;0.022;2023-06-22T12:50:00;21.90;70.30
37806;DHT22;25082;50.870;0.022;2023-06-22T12:52:26;21.90;70.20
37806;DHT22;25082;50.870;0.022;2023-06-22T12:54:52;21.90;70.30
37806;DHT22;25082;50.870;0.022;2023-06-22T12:57:18;21.90;70.30
37806;DHT22;25082;50.870;0.022;2023-06-22T12:59:45;21.90;70.40
37806;DHT22;25082;50.870;0.022;2023-06-22T13:02:11;21.90;70.40
37806;DHT22;25082;50.870;0.022;2023-06-22T13:04:36;21.90;70.40
37806;DHT22;25082;50.870;0.022;2023-06-22T13:07:02;21.90;70.50
37806;DHT22;25082;50.870;0.022;2023-06-22T13:09:28;21.90;70.50
37806;DHT22;25082;50.870;0.022;2023-06-22T13:11:53;21.90;70.60
37806;DHT22;25082;50.870;0.022;2023-06-22T13:14:19;21.90;70.60
37806;DHT22;25082;50.870;0.022;2023-06-22T13:16:45;21.90;70.60
37806;DHT22;25082;50.870;0.022;2023-06-22T13:19:11;21.90;70.70
37806;DHT22;25082;50.870;0.022;2023-06-22T13:21:36;22.00;70.80
37806;DHT22;25082;50.870;0.022;2023-06-22T13:24:02;22.00;70.80
37806;DHT22;25082;50.870;0.022;2023-06-22T13:26:28;22.00;70.90
37806;DHT22;25082;50.870;0.022;2023-06-22T13:28:54;22.00;71.00
37806;DHT22;25082;50.870;0.022;2023-06-22T13:31:20;22.00;71.00
37806;DHT22;25082;50.870;0.022;2023-06-22T13:33:47;22.00;71.10
37806;DHT22;25082;50.870;0.022;2023-06-22T13:36:14;22.00;71.10
37806;DHT22;25082;50.870;0.022;2023-06-22T13:38:40;22.00;71.10
37806;DHT22;25082;50.870;0.022;2023-06-22T13:41:06;22.00;71.20
37806;DHT22;25082;50.870;0.022;2023-06-22T13:43:32;22.00;71.20
37806;DHT22;25082;50.870;0.022;2023-06-22T13:45:57;22.00;71.30
37806;DHT22;25082;50.870;0.022;2023-06-22T13:48:23;22.00;71.30
37806;DHT22;25082;50.870;0.022;2023-06-22T13:50:51;22.00;71.40
37806;DHT22;25082;50.870;0.022;2023-06-22T13:53:17;22.10;71.50
37806;DHT22;25082;50.870;0.022;2023-06-22T13:55:43;22.10;71.50
37806;DHT22;25082;50.870;0.022;2023-06-22T13:58:09;22.00;71.50
37806;DHT22;25082;50.870;0.022;2023-06-22T14:00:34;22.00;71.50
37806;DHT22;25082;50.870;0.022;2023-06-22T14:03:00;22.10;71.60
37806;DHT22;25082;50.870;0.022;2023-06-22T14:05:26;22.00;71.60
37806;DHT22;25082;50.870;0.022;2023-06-22T14:07:51;22.10;71.60
37806;DHT22;25082;50.870;0.022;2023-06-22T14:10:17;22.10;71.60
37806;DHT22;25082;50.870;0.022;2023-06-22T14:12:43;22.10;71.70
37806;DHT22;25082;50.870;0.022;2023-06-22T14:15:10;22.10;71.70
37806;DHT22;25082;50.870;0.022;2023-06-22T14:17:36;22.10;71.70
37806;DHT22;25082;50.870;0.022;2023-06-22T14:20:02;22.10;71.70
37806;DHT22;25082;50.870;0.022;2023-06-22T14:22:28;22.10;71.80
37806;DHT22;25082;50.870;0.022;2023-06-22T14:24:55;22.10;71.80
37806;DHT22;25082;50.870;0.022;2023-06-22T14:27:23;22.10;71.80
37806;DHT22;25082;50.870;0.022;2023-06-22T14:29:49;22.10;71.80
37806;DHT22;25082;50.870;0.022;2023-06-22T14:32:14;22.10;71.80
37806;DHT22;25082;50.870;0.022;2023-06-22T14:34:40;22.10;71.80
37806;DHT22;25082;50.870;0.022;2023-06-22T14:37:07;22.10;71.80
37806;DHT22;25082;50.870;0.022;2023-06-22T14:39:34;22.10;71.80
37806;DHT22;25082;50.870;0.022;2023-06-22T14:42:00;22.20;71.90
37806;DHT22;25082;50.870;0.022;2023-06-22T14:44:26;22.20;71.90
37806;DHT22;25082;50.870;0.022;2023-06-22T14:46:54;22.20;71.90
37806;DHT22;25082;50.870;0.022;2023-06-22T14:49:20;22.20;71.80
37806;DHT22;25082;50.870;0.022;2023-06-22T14:51:46;22.20;71.90
37806;DHT22;25082;50.870;0.022;2023-06-22T14:54:12;22.20;71.90
37806;DHT22;25082;50.870;0.022;2023-06-22T14:56:37;22.20;71.90
37806;DHT22;25082;50.870;0.022;2023-06-22T14:59:03;22.20;71.90
37806;DHT22;25082;50.870;0.022;2023-06-22T15:01:29;22.20;71.90
37806;DHT22;25082;50.870;0.022;2023-06-22T15:03:55;22.20;71.90
37806;DHT22;25082;50.870;0.022;2023-06-22T15:06:21;22.30;72.00
37806;DHT22;25082;50.870;0.022;2023-06-22T15:08:47;22.30;72.00
37806;DHT22;25082;50.870;0.022;2023-06-22T15:11:13;22.30;72.00
37806;DHT22;25082;50.870;0.022;2023-06-22T15:13:39;22.30;72.10
37806;DHT22;25082;50.870;0.022;2023-06-22T15:16:05;22.30;72.00
37806;DHT22;25082;50.870;0.022;2023-06-22T15:18:31;22.30;72.10
37806;DHT22;25082;50.870;0.022;2023-06-22T15:20:59;22.30;72.10
37806;DHT22;25082;50.870;0.022;2023-06-22T15:23:30;22.30;72.10
37806;DHT22;25082;50.870;0.022;2023-06-22T15:25:56;22.30;72.10
37806;DHT22;25082;50.870;0.022;2023-06-22T15:28:22;22.30;72.10
37806;DHT22;25082;50.870;0.022;2023-06-22T15:30:49;22.30;72.20
37806;DHT22;25082;50.870;0.022;2023-06-22T15:33:15;22.30;72.10
37806;DHT22;25082;50.870;0.022;2023-06-22T15:35:41;22.40;72.20